createdAt,value
2019-05-26T00:01:07.769Z,6.73
2019-05-26T00:03:36.410Z,7.80
2019-05-26T00:06:05.134Z,5.93
2019-05-26T00:08:33.819Z,4.87
2019-05-26T00:11:02.548Z,5.60
2019-05-26T00:13:31.183Z,4.07
2019-05-26T00:16:00.044Z,5.30
2019-05-26T00:18:28.671Z,6.40
2019-05-26T00:20:57.306Z,5.03
2019-05-26T00:23:25.916Z,7.40
2019-05-26T00:25:54.541Z,5.70
2019-05-26T00:28:23.169Z,6.50
2019-05-26T00:30:51.872Z,4.73
2019-05-26T00:33:20.513Z,4.80
2019-05-26T00:35:49.155Z,5.07
2019-05-26T00:38:17.838Z,4.80
2019-05-26T00:40:46.707Z,4.80
2019-05-26T00:43:15.469Z,9.27
2019-05-26T00:45:44.242Z,5.33
2019-05-26T00:48:13.019Z,6.63
2019-05-26T00:50:41.726Z,6.17
2019-05-26T00:53:10.495Z,6.30
2019-05-26T00:55:39.210Z,4.83
2019-05-26T00:58:07.912Z,4.83
2019-05-26T01:00:41.093Z,4.90
2019-05-26T01:03:10.292Z,5.90
2019-05-26T01:05:39.214Z,6.67
2019-05-26T01:08:08.131Z,5.83
2019-05-26T01:10:36.947Z,6.03
2019-05-26T01:13:06.096Z,4.90
2019-05-26T01:15:35.121Z,5.60
2019-05-26T01:18:03.945Z,5.70
2019-05-26T01:20:32.648Z,5.40
2019-05-26T01:23:01.278Z,4.90
2019-05-26T01:25:30.062Z,11.33
2019-05-26T01:27:58.728Z,5.30
2019-05-26T01:30:37.793Z,5.73
2019-05-26T01:33:06.756Z,6.03
2019-05-26T01:35:38.972Z,4.87
2019-05-26T01:38:22.527Z,6.67
2019-05-26T01:40:40.034Z,6.73
2019-05-26T01:43:09.124Z,6.80
2019-05-26T01:45:37.844Z,7.03
2019-05-26T01:48:07.195Z,7.30
2019-05-26T01:50:35.988Z,6.00
2019-05-26T01:53:05.067Z,6.10
2019-05-26T01:55:33.853Z,7.50
2019-05-26T01:58:02.531Z,8.07
2019-05-26T02:00:31.234Z,6.30
2019-05-26T02:02:59.982Z,9.60
2019-05-26T02:05:28.676Z,7.10
2019-05-26T02:07:57.375Z,7.00
2019-05-26T02:10:26.070Z,6.97
2019-05-26T02:12:54.700Z,9.83
2019-05-26T02:15:23.897Z,8.20
2019-05-26T02:17:52.595Z,6.97
2019-05-26T02:20:21.506Z,7.73
2019-05-26T02:22:50.206Z,6.33
2019-05-26T02:25:19.304Z,6.57
2019-05-26T02:27:47.968Z,6.83
2019-05-26T02:30:16.971Z,7.60
2019-05-26T02:32:45.719Z,10.30
2019-05-26T02:35:14.796Z,6.37
2019-05-26T02:37:43.911Z,6.33
2019-05-26T02:40:13.601Z,6.70
2019-05-26T02:42:42.235Z,12.13
2019-05-26T02:45:12.928Z,5.80
2019-05-26T02:47:41.646Z,8.40
2019-05-26T02:50:10.789Z,8.20
2019-05-26T02:52:39.407Z,7.70
2019-05-26T02:55:09.021Z,6.50
2019-05-26T02:57:37.757Z,8.07
2019-05-26T03:00:07.120Z,6.67
2019-05-26T03:02:35.748Z,7.67
2019-05-26T03:05:05.415Z,7.50
2019-05-26T03:07:34.138Z,6.90
2019-05-26T03:10:03.987Z,9.23
2019-05-26T03:12:34.176Z,7.70
2019-05-26T03:15:03.843Z,6.63
2019-05-26T03:17:34.862Z,8.93
2019-05-26T03:20:05.635Z,11.07
2019-05-26T03:22:34.734Z,8.13
2019-05-26T03:25:04.732Z,9.67
2019-05-26T03:27:33.525Z,7.60
2019-05-26T03:30:02.315Z,8.00
2019-05-26T03:32:30.929Z,7.90
2019-05-26T03:35:00.135Z,7.63
2019-05-26T03:37:28.849Z,10.40
2019-05-26T03:39:57.572Z,8.23
2019-05-26T03:42:26.242Z,8.00
2019-05-26T03:44:54.896Z,8.77
2019-05-26T03:47:23.534Z,7.30
2019-05-26T03:49:52.160Z,9.33
2019-05-26T03:52:20.830Z,7.40
2019-05-26T03:54:49.467Z,7.83
2019-05-26T03:57:18.101Z,8.47
2019-05-26T03:59:46.816Z,6.87
2019-05-26T04:02:15.470Z,7.30
2019-05-26T04:04:44.180Z,9.83
2019-05-26T04:07:12.826Z,7.90
2019-05-26T04:09:41.465Z,8.40
2019-05-26T04:12:10.387Z,12.77
2019-05-26T04:14:39.010Z,8.93
2019-05-26T04:17:07.770Z,9.50
2019-05-26T04:19:36.420Z,9.03
2019-05-26T04:22:05.161Z,11.63
2019-05-26T04:24:33.901Z,10.27
2019-05-26T04:27:02.586Z,8.63
2019-05-26T04:29:31.214Z,8.70
2019-05-26T04:32:02.148Z,10.67
2019-05-26T04:34:30.231Z,8.97
2019-05-26T04:36:58.894Z,9.70
2019-05-26T04:39:27.517Z,13.80
2019-05-26T04:41:56.180Z,9.00
2019-05-26T04:44:24.834Z,9.60
2019-05-26T04:46:53.472Z,8.63
2019-05-26T04:49:22.122Z,8.47
2019-05-26T04:51:50.771Z,7.80
2019-05-26T04:54:19.389Z,6.87
2019-05-26T04:56:48.090Z,8.23
2019-05-26T04:59:16.716Z,9.53
2019-05-26T05:01:45.386Z,10.07
2019-05-26T05:04:14.104Z,9.57
2019-05-26T05:06:42.722Z,9.80
2019-05-26T05:09:11.447Z,9.90
2019-05-26T05:11:40.153Z,9.57
2019-05-26T05:14:08.847Z,9.80
2019-05-26T05:16:37.558Z,9.27
2019-05-26T05:19:06.327Z,10.20
2019-05-26T05:21:35.054Z,12.43
2019-05-26T05:24:03.713Z,11.83
2019-05-26T05:26:32.366Z,11.37
2019-05-26T05:29:01.138Z,11.87
2019-05-26T05:31:29.738Z,12.87
2019-05-26T05:33:58.506Z,11.10
2019-05-26T05:36:27.203Z,9.40
2019-05-26T05:38:55.947Z,10.47
2019-05-26T05:41:24.611Z,11.40
2019-05-26T05:43:53.268Z,11.00
2019-05-26T05:46:21.996Z,11.40
2019-05-26T05:48:50.669Z,10.87
2019-05-26T05:51:19.299Z,11.57
2019-05-26T05:53:47.982Z,12.37
2019-05-26T05:56:16.612Z,13.27
2019-05-26T05:58:45.357Z,11.03
2019-05-26T06:01:13.984Z,10.57
2019-05-26T06:03:42.728Z,10.47
2019-05-26T06:06:11.471Z,13.17
2019-05-26T06:08:40.188Z,11.10
2019-05-26T06:11:16.512Z,11.60
2019-05-26T06:13:39.335Z,12.80
2019-05-26T06:16:07.971Z,11.20
2019-05-26T06:18:36.619Z,10.80
2019-05-26T06:21:05.364Z,11.40
2019-05-26T06:23:36.865Z,12.63
2019-05-26T06:26:05.531Z,14.77
2019-05-26T06:28:34.257Z,10.97
2019-05-26T06:31:02.969Z,10.73
2019-05-26T06:33:31.620Z,10.67
2019-05-26T06:36:00.272Z,10.23
2019-05-26T06:38:29.021Z,11.03
2019-05-26T06:40:57.810Z,13.47
2019-05-26T06:43:26.743Z,10.40
2019-05-26T06:45:55.495Z,9.90
2019-05-26T06:48:26.754Z,10.20
2019-05-26T06:50:54.852Z,10.43
2019-05-26T06:53:23.624Z,14.03
2019-05-26T06:55:52.416Z,13.23
2019-05-26T06:58:21.212Z,11.13
2019-05-26T07:00:50.115Z,14.70
2019-05-26T07:03:18.906Z,13.67
2019-05-26T07:05:47.581Z,11.57
2019-05-26T07:08:16.288Z,13.10
2019-05-26T07:10:45.011Z,10.97
2019-05-26T07:13:13.736Z,10.70
2019-05-26T07:15:42.409Z,10.47
2019-05-26T07:18:11.144Z,10.40
2019-05-26T07:20:39.855Z,11.87
2019-05-26T07:23:09.263Z,11.03
2019-05-26T07:25:38.198Z,12.03
2019-05-26T07:28:06.911Z,13.10
2019-05-26T07:30:35.670Z,17.17
2019-05-26T07:33:04.492Z,12.50
2019-05-26T07:35:33.467Z,12.97
2019-05-26T07:38:02.174Z,11.80
2019-05-26T07:40:30.889Z,12.30
2019-05-26T07:42:59.639Z,11.40
2019-05-26T07:45:28.348Z,13.53
2019-05-26T07:47:57.165Z,11.30
2019-05-26T07:50:26.083Z,13.80
2019-05-26T07:52:54.836Z,12.70
2019-05-26T07:55:23.532Z,12.83
2019-05-26T07:57:52.189Z,15.30
2019-05-26T08:00:21.454Z,14.60
2019-05-26T08:02:50.128Z,12.20
2019-05-26T08:05:18.830Z,10.70
2019-05-26T08:08:11.638Z,12.47
2019-05-26T08:10:27.541Z,12.77
2019-05-26T08:12:56.258Z,10.30
2019-05-26T08:15:25.354Z,11.13
2019-05-26T08:17:53.997Z,10.20
2019-05-26T08:20:22.808Z,9.03
2019-05-26T08:23:44.131Z,9.10
2019-05-26T08:26:12.716Z,9.10
2019-05-26T08:28:41.435Z,9.53
2019-05-26T08:31:13.254Z,8.50
2019-05-26T08:33:40.594Z,12.27
2019-05-26T08:36:09.223Z,9.13
2019-05-26T08:38:37.891Z,8.40
2019-05-26T08:41:06.702Z,10.30
2019-05-26T08:43:35.426Z,7.90
2019-05-26T08:46:04.397Z,6.97
2019-05-26T08:48:33.055Z,8.30
2019-05-26T08:51:01.976Z,8.23
2019-05-26T08:53:30.708Z,7.07
2019-05-26T08:55:59.377Z,6.33
2019-05-26T08:58:29.448Z,9.10
2019-05-26T09:00:58.326Z,6.70
2019-05-26T09:03:27.057Z,5.23
2019-05-26T09:05:55.776Z,4.70
2019-05-26T09:08:24.504Z,8.60
2019-05-26T09:10:53.278Z,6.40
2019-05-26T09:13:21.918Z,6.23
2019-05-26T09:15:50.599Z,7.10
2019-05-26T09:18:19.289Z,5.90
2019-05-26T09:20:47.980Z,5.67
2019-05-26T09:23:18.621Z,4.23
2019-05-26T09:25:47.367Z,4.53
2019-05-26T09:28:16.199Z,6.60
2019-05-26T09:30:44.928Z,6.73
2019-05-26T09:33:13.779Z,6.10
2019-05-26T09:35:42.566Z,5.30
2019-05-26T09:38:11.264Z,7.83
2019-05-26T09:40:40.022Z,6.53
2019-05-26T09:43:15.991Z,7.30
2019-05-26T09:45:39.300Z,3.90
2019-05-26T09:48:07.925Z,4.10
2019-05-26T09:50:36.592Z,4.47
2019-05-26T09:53:05.386Z,5.20
2019-05-26T09:55:34.118Z,4.27
2019-05-26T09:58:02.749Z,6.10
2019-05-26T10:00:31.486Z,3.40
2019-05-26T10:03:00.130Z,4.60
2019-05-26T10:05:28.910Z,3.17
2019-05-26T10:07:57.557Z,5.47
2019-05-26T10:10:26.652Z,5.67
2019-05-26T10:12:55.433Z,4.30
2019-05-26T10:15:24.212Z,4.23
2019-05-26T10:17:52.837Z,4.00
2019-05-26T10:20:21.929Z,5.23
2019-05-26T10:22:50.767Z,4.37
2019-05-26T10:25:19.537Z,4.70
2019-05-26T10:27:48.211Z,6.57
2019-05-26T10:30:18.794Z,4.20
2019-05-26T10:32:47.418Z,3.80
2019-05-26T10:35:16.789Z,4.30
2019-05-26T10:37:45.447Z,4.53
2019-05-26T10:40:14.863Z,2.90
2019-05-26T10:42:43.464Z,3.47
2019-05-26T10:45:12.413Z,2.30
2019-05-26T10:47:41.089Z,3.50
2019-05-26T10:50:10.201Z,2.67
2019-05-26T10:52:39.232Z,3.63
2019-05-26T10:55:08.135Z,3.60
2019-05-26T10:57:36.954Z,3.47
2019-05-26T11:00:06.902Z,3.80
2019-05-26T11:02:35.584Z,4.70
2019-05-26T11:05:04.373Z,3.20
2019-05-26T11:07:33.024Z,3.23
2019-05-26T11:10:01.785Z,4.83
2019-05-26T11:12:30.496Z,3.80
2019-05-26T11:14:59.164Z,2.73
2019-05-26T11:17:27.806Z,3.20
2019-05-26T11:19:56.542Z,3.00
2019-05-26T11:22:25.364Z,3.67
2019-05-26T11:24:53.934Z,4.90
2019-05-26T11:27:22.602Z,3.00
2019-05-26T11:29:51.307Z,4.60
2019-05-26T11:32:20.016Z,4.53
2019-05-26T11:35:00.694Z,5.43
2019-05-26T11:37:19.259Z,3.93
2019-05-26T11:39:47.896Z,4.33
2019-05-26T11:42:16.529Z,4.43
2019-05-26T11:44:45.159Z,4.10
2019-05-26T11:47:13.872Z,5.07
2019-05-26T11:49:42.692Z,5.07
2019-05-26T11:52:11.358Z,4.67
2019-05-26T11:54:39.998Z,3.97
2019-05-26T11:57:08.805Z,5.63
2019-05-26T11:59:37.435Z,4.80
2019-05-26T12:02:06.154Z,5.07
2019-05-26T12:04:34.851Z,5.80
2019-05-26T12:07:04.449Z,6.23
2019-05-26T12:09:33.326Z,4.70
2019-05-26T12:12:01.949Z,4.67
2019-05-26T12:14:35.006Z,6.97
2019-05-26T12:17:00.911Z,6.80
2019-05-26T12:19:29.623Z,5.20
2019-05-26T12:21:58.238Z,3.60
2019-05-26T12:24:26.997Z,3.73
2019-05-26T12:26:55.692Z,3.80
2019-05-26T12:29:24.419Z,5.23
2019-05-26T12:31:53.070Z,3.83
2019-05-26T12:34:21.761Z,3.20
2019-05-26T12:36:50.469Z,3.77
2019-05-26T12:39:19.250Z,2.83
2019-05-26T12:41:48.005Z,3.87
2019-05-26T12:44:16.772Z,3.20
2019-05-26T12:46:45.507Z,2.70
2019-05-26T12:49:14.300Z,2.80
2019-05-26T12:51:43.019Z,2.53
2019-05-26T12:54:14.496Z,2.33
2019-05-26T12:56:43.139Z,3.60
2019-05-26T12:59:14.507Z,2.40
2019-05-26T13:01:43.156Z,2.40
2019-05-26T13:04:11.797Z,2.53
2019-05-26T13:06:42.601Z,2.17
2019-05-26T13:09:12.189Z,2.57
2019-05-26T13:11:40.956Z,2.40
2019-05-26T13:14:09.613Z,2.73
2019-05-26T13:16:38.351Z,4.20
2019-05-26T13:19:07.106Z,2.33
2019-05-26T13:21:35.919Z,1.90
2019-05-26T13:24:04.897Z,2.13
2019-05-26T13:26:33.547Z,2.10
2019-05-26T13:29:02.178Z,1.73
2019-05-26T13:31:30.894Z,1.47
2019-05-26T13:33:59.614Z,2.70
2019-05-26T13:36:28.324Z,2.00
2019-05-26T13:38:56.993Z,1.73
2019-05-26T13:41:25.816Z,1.50
2019-05-26T13:43:54.516Z,1.97
2019-05-26T13:46:23.164Z,2.10
2019-05-26T13:48:51.863Z,2.27
2019-05-26T13:51:20.538Z,1.87
2019-05-26T13:53:49.235Z,2.20
2019-05-26T13:56:17.937Z,1.90
2019-05-26T13:58:46.588Z,1.90
2019-05-26T14:01:15.219Z,1.67
2019-05-26T14:03:43.957Z,2.30
2019-05-26T14:06:12.669Z,1.60
2019-05-26T14:08:41.471Z,1.63
2019-05-26T14:11:10.102Z,1.87
2019-05-26T14:13:39.399Z,1.60
2019-05-26T14:16:08.125Z,2.10
2019-05-26T14:18:37.248Z,2.33
2019-05-26T14:21:06.014Z,1.20
2019-05-26T14:23:35.988Z,1.50
2019-05-26T14:26:04.697Z,1.77
2019-05-26T14:28:33.337Z,1.43
2019-05-26T14:31:01.981Z,1.50
2019-05-26T14:33:30.646Z,1.50
2019-05-26T14:35:59.292Z,2.20
2019-05-26T14:38:42.292Z,1.70
2019-05-26T14:40:58.337Z,4.60
2019-05-26T14:43:26.979Z,11.90
2019-05-26T14:45:55.639Z,1.63
2019-05-26T14:48:24.432Z,1.50
2019-05-26T14:50:53.129Z,1.00
2019-05-26T14:53:22.388Z,1.10
2019-05-26T14:55:51.100Z,2.70
2019-05-26T14:58:19.778Z,1.40
2019-05-26T15:00:48.426Z,2.27
2019-05-26T15:03:17.059Z,2.23
2019-05-26T15:05:45.669Z,3.17
2019-05-26T15:08:14.428Z,1.27
2019-05-26T15:10:43.127Z,1.23
2019-05-26T15:13:11.910Z,1.50
2019-05-26T15:15:41.467Z,5.50
2019-05-26T15:18:10.128Z,1.60
2019-05-26T15:20:38.840Z,1.73
2019-05-26T15:23:07.486Z,1.83
2019-05-26T15:25:36.323Z,1.60
2019-05-26T15:28:05.199Z,1.57
2019-05-26T15:30:33.822Z,1.40
2019-05-26T15:33:02.445Z,1.17
2019-05-26T15:35:31.102Z,1.50
2019-05-26T15:37:59.797Z,1.33
2019-05-26T15:40:29.114Z,1.97
2019-05-26T15:42:57.734Z,1.60
2019-05-26T15:45:26.449Z,1.93
2019-05-26T15:47:55.217Z,2.43
2019-05-26T15:50:23.938Z,2.07
2019-05-26T15:52:52.561Z,1.47
2019-05-26T15:55:21.291Z,1.10
2019-05-26T15:57:49.962Z,1.30
2019-05-26T16:00:18.797Z,4.03
2019-05-26T16:02:47.535Z,1.80
2019-05-26T16:05:16.374Z,1.90
2019-05-26T16:07:45.062Z,2.20
2019-05-26T16:10:13.941Z,1.53
2019-05-26T16:12:42.574Z,1.63
2019-05-26T16:15:11.617Z,6.93
2019-05-26T16:17:40.439Z,3.60
2019-05-26T16:20:09.435Z,1.90
2019-05-26T16:22:38.198Z,1.70
2019-05-26T16:25:07.198Z,1.47
2019-05-26T16:27:36.009Z,1.63
2019-05-26T16:30:07.033Z,2.33
2019-05-26T16:32:35.660Z,1.90
2019-05-26T16:35:05.127Z,1.57
2019-05-26T16:37:33.801Z,2.20
2019-05-26T16:40:02.546Z,2.17
2019-05-26T16:42:31.245Z,1.73
2019-05-26T16:44:59.979Z,1.20
2019-05-26T16:47:28.617Z,1.10
2019-05-26T16:49:57.632Z,1.27
2019-05-26T16:52:26.309Z,1.37
2019-05-26T16:54:55.043Z,1.80
2019-05-26T16:57:23.759Z,3.00
2019-05-26T16:59:52.460Z,1.67
2019-05-26T17:02:21.212Z,1.27
2019-05-26T17:04:49.833Z,1.30
2019-05-26T17:07:18.495Z,1.50
2019-05-26T17:09:47.178Z,15.63
2019-05-26T17:12:15.811Z,1.50
2019-05-26T17:14:44.445Z,2.40
2019-05-26T17:17:15.073Z,1.30
2019-05-26T17:19:43.476Z,1.90
2019-05-26T17:22:12.168Z,1.73
2019-05-26T17:24:40.865Z,1.43
2019-05-26T17:27:09.595Z,1.30
2019-05-26T17:29:38.378Z,1.40
2019-05-26T17:32:07.095Z,2.03
2019-05-26T17:34:35.808Z,1.93
2019-05-26T17:37:04.560Z,1.73
2019-05-26T17:39:33.241Z,2.07
2019-05-26T17:42:01.937Z,1.60
2019-05-26T17:44:30.665Z,1.57
2019-05-26T17:46:59.379Z,1.67
2019-05-26T17:49:28.013Z,2.53
2019-05-26T17:51:56.738Z,2.13
2019-05-26T17:54:25.364Z,1.93
2019-05-26T17:56:54.085Z,1.80
2019-05-26T17:59:22.805Z,1.73
2019-05-26T18:01:51.543Z,1.60
2019-05-26T18:04:20.170Z,1.53
2019-05-26T18:06:48.831Z,2.13
2019-05-26T18:09:17.515Z,1.90
2019-05-26T18:11:46.185Z,3.73
2019-05-26T18:14:14.880Z,1.60
2019-05-26T18:16:43.550Z,3.00
2019-05-26T18:19:12.330Z,1.80
2019-05-26T18:21:41.148Z,3.47
2019-05-26T18:24:09.842Z,1.77
2019-05-26T18:26:38.474Z,1.57
2019-05-26T18:29:07.177Z,2.00
2019-05-26T18:31:36.085Z,3.00
2019-05-26T18:34:04.926Z,3.17
2019-05-26T18:36:33.575Z,1.40
2019-05-26T18:39:02.195Z,1.67
2019-05-26T18:41:30.812Z,3.03
2019-05-26T18:43:59.559Z,1.53
2019-05-26T18:46:28.328Z,1.63
2019-05-26T18:48:56.991Z,1.97
2019-05-26T18:51:25.628Z,1.30
2019-05-26T18:53:54.272Z,3.17
2019-05-26T18:56:22.924Z,2.00
2019-05-26T18:58:51.697Z,3.33
2019-05-26T19:01:20.418Z,1.40
2019-05-26T19:03:49.121Z,3.07
2019-05-26T19:06:17.923Z,1.57
2019-05-26T19:08:46.657Z,1.70
2019-05-26T19:11:15.410Z,2.03
2019-05-26T19:13:44.718Z,1.50
2019-05-26T19:16:17.075Z,3.60
2019-05-26T19:18:48.055Z,1.90
2019-05-26T19:21:18.834Z,2.40
2019-05-26T19:24:09.658Z,1.60
2019-05-26T19:26:41.643Z,1.70
2019-05-26T19:29:21.855Z,1.77
2019-05-26T19:31:57.363Z,1.73
2019-05-26T19:34:28.320Z,2.03
2019-05-26T19:36:57.837Z,3.50
2019-05-26T19:39:29.676Z,2.17
2019-05-26T19:42:03.245Z,2.13
2019-05-26T19:44:35.865Z,1.53
2019-05-26T19:47:08.789Z,1.47
2019-05-26T19:49:39.965Z,2.10
2019-05-26T19:52:31.042Z,1.50
2019-05-26T19:55:02.721Z,1.47
2019-05-26T19:57:37.707Z,1.90
2019-05-26T20:00:14.684Z,1.83
2019-05-26T20:03:00.112Z,1.37
2019-05-26T20:05:29.562Z,2.50
2019-05-26T20:08:21.272Z,1.63
2019-05-26T20:10:55.649Z,2.13
2019-05-26T20:13:25.785Z,1.97
2019-05-26T20:15:58.079Z,1.30
2019-05-26T20:18:30.286Z,2.00
2019-05-26T20:21:03.533Z,1.50
2019-05-26T20:23:32.705Z,1.10
2019-05-26T20:26:03.553Z,1.50
2019-05-26T20:28:36.378Z,1.60
2019-05-26T20:31:09.234Z,1.67
2019-05-26T20:33:38.498Z,1.47
2019-05-26T20:36:11.003Z,1.80
2019-05-26T20:38:40.482Z,1.87
2019-05-26T20:41:13.299Z,1.30
2019-05-26T20:43:43.872Z,1.73
2019-05-26T20:46:12.994Z,1.40
2019-05-26T20:48:51.043Z,2.27
2019-05-26T20:51:21.594Z,1.67
2019-05-26T20:53:50.415Z,2.00
2019-05-26T20:56:20.625Z,1.50
2019-05-26T20:58:59.382Z,3.47
2019-05-26T21:01:33.751Z,1.40
2019-05-26T21:04:03.387Z,1.57
2019-05-26T21:06:34.333Z,2.20
2019-05-26T21:09:15.792Z,1.67
2019-05-26T21:11:57.448Z,1.53
2019-05-26T21:14:28.823Z,1.80
2019-05-26T21:17:03.494Z,3.37
2019-05-26T21:19:34.499Z,1.97
2019-05-26T21:22:04.860Z,1.70
2019-05-26T21:24:37.110Z,1.53
2019-05-26T21:27:12.041Z,3.00
2019-05-26T21:29:46.979Z,1.50
2019-05-26T21:32:17.621Z,2.20
2019-05-26T21:34:50.857Z,2.53
2019-05-26T21:37:23.984Z,2.07
2019-05-26T21:40:03.469Z,4.33
2019-05-26T21:42:35.368Z,2.60
2019-05-26T21:45:13.872Z,1.90
2019-05-26T21:47:48.903Z,1.73
2019-05-26T21:50:17.886Z,1.97
2019-05-26T21:52:55.546Z,2.60
2019-05-26T21:55:25.444Z,1.90
2019-05-26T21:57:56.342Z,2.00
2019-05-26T22:00:33.927Z,1.93
2019-05-26T22:03:06.195Z,1.50
2019-05-26T22:05:35.821Z,2.17
2019-05-26T22:08:10.478Z,1.87
2019-05-26T22:10:44.131Z,2.10
2019-05-26T22:13:17.375Z,2.07
2019-05-26T22:15:47.022Z,2.47
2019-05-26T22:18:15.725Z,2.33
2019-05-26T22:20:44.420Z,2.10
2019-05-26T22:23:13.163Z,6.50
2019-05-26T22:25:41.867Z,2.60
2019-05-26T22:28:14.614Z,1.60
2019-05-26T22:30:49.721Z,2.37
2019-05-26T22:33:29.662Z,3.97
2019-05-26T22:36:09.216Z,2.43
2019-05-26T22:38:39.037Z,2.17
2019-05-26T22:41:09.775Z,2.00
2019-05-26T22:43:38.875Z,2.80
2019-05-26T22:46:11.586Z,1.93
2019-05-26T22:49:17.858Z,2.63
2019-05-26T22:51:51.063Z,3.13
2019-05-26T22:54:36.365Z,1.97
2019-05-26T22:57:07.018Z,2.70
2019-05-26T22:59:37.364Z,1.90
2019-05-26T23:02:09.646Z,3.10
2019-05-26T23:04:41.566Z,3.03
2019-05-26T23:07:10.159Z,1.97
2019-05-26T23:09:38.857Z,2.80
2019-05-26T23:12:07.592Z,3.93
2019-05-26T23:14:36.362Z,1.93
2019-05-26T23:17:05.230Z,2.30
2019-05-26T23:19:33.919Z,2.30
2019-05-26T23:22:02.613Z,2.00
2019-05-26T23:24:31.594Z,2.03
2019-05-26T23:27:00.485Z,5.20
2019-05-26T23:29:29.284Z,1.70
2019-05-26T23:31:57.920Z,2.57
2019-05-26T23:34:26.579Z,2.57
2019-05-26T23:36:55.287Z,1.60
2019-05-26T23:39:23.910Z,3.67
2019-05-26T23:41:52.719Z,1.53
2019-05-26T23:44:21.363Z,2.07
2019-05-26T23:46:50.018Z,1.80
2019-05-26T23:49:18.733Z,1.70
2019-05-26T23:51:47.377Z,1.93
2019-05-26T23:54:16.043Z,2.27
2019-05-26T23:56:44.708Z,2.20
2019-05-26T23:59:13.399Z,2.67
